Time;durP1;ratioP1;P1;durP2;ratioP2;P2;SDS_P1;SDS_P2;PMS_P1;PMS_P2;Temp;Humidity;BMP_temperature;BMP_pressure;BME280_temperature;BME280_humidity;BME280_pressure;Samples;Min_cycle;Max_cycle;Signal;HPM_P1;HPM_P2
2023/04/12 00:03:19;;;;;;;0.77;0.30;;;;;;;-147.53;100.00;57128.34;10544901;28;20617;-80
2023/04/12 00:08:25;;;;;;;0.82;0.40;;;;;;;-147.53;100.00;57128.34;10552213;28;20051;-80
2023/04/12 00:13:26;;;;;;;1.45;0.77;;;;;;;-147.53;100.00;57128.34;10553210;28;20066;-79
2023/04/12 00:18:28;;;;;;;0.43;0.43;;;;;;;-147.53;100.00;57128.34;10551096;28;20392;-79
2023/04/12 00:23:29;;;;;;;0.70;0.40;;;;;;;-147.53;100.00;57128.34;10531802;28;20048;-79
2023/04/12 00:28:31;;;;;;;1.80;1.38;;;;;;;-147.53;100.00;57128.34;10544387;28;20059;-80
2023/04/12 00:33:36;;;;;;;1.70;0.93;;;;;;;-147.53;100.00;57128.34;10509016;28;20139;-79
2023/04/12 00:38:37;;;;;;;1.15;0.60;;;;;;;-147.53;100.00;57128.34;10529220;28;20040;-79
2023/04/12 00:43:41;;;;;;;0.20;0.20;;;;;;;-147.53;100.00;57128.34;10552161;28;20044;-79
2023/04/12 00:48:43;;;;;;;0.57;0.45;;;;;;;-147.53;100.00;57128.34;10556887;28;20633;-79
2023/04/12 00:53:45;;;;;;;0.47;0.43;;;;;;;-147.53;100.00;57128.34;10530528;28;20044;-79
2023/04/12 00:58:47;;;;;;;0.65;0.38;;;;;;;-147.53;100.00;57128.34;10533852;28;20040;-79
2023/04/12 01:03:51;;;;;;;0.68;0.57;;;;;;;-147.53;100.00;57128.34;10558932;28;20039;-79
2023/04/12 01:09:14;;;;;;;0.82;0.70;;;;;;;-147.53;100.00;57128.34;10559704;28;20043;-79
2023/04/12 01:14:26;;;;;;;0.98;0.80;;;;;;;-147.53;100.00;57128.34;10542364;28;20052;-79
2023/04/12 01:19:32;;;;;;;2.10;1.13;;;;;;;-147.53;100.00;57128.34;10514294;28;20097;-79
2023/04/12 01:24:44;;;;;;;0.30;0.30;;;;;;;-147.53;100.00;57128.34;10545504;28;20048;-79
2023/04/12 01:29:50;;;;;;;0.20;0.20;;;;;;;-147.53;100.00;57128.34;10558465;28;20055;-79
2023/04/12 01:34:53;;;;;;;0.47;0.22;;;;;;;-147.53;100.00;57128.34;10517709;28;20051;-79
2023/04/12 01:39:55;;;;;;;4.53;1.20;;;;;;;-147.53;100.00;57128.34;10516166;28;20040;-79
2023/04/12 01:44:58;;;;;;;1.30;0.30;;;;;;;-147.53;100.00;57128.34;10485951;28;20051;-79
2023/04/12 01:50:15;;;;;;;0.55;0.45;;;;;;;-147.53;100.00;57128.34;10487411;28;20044;-79
2023/04/12 01:55:20;;;;;;;3.47;0.57;;;;;;;-147.53;100.00;57128.34;10543324;28;20080;-79
2023/04/12 02:00:23;;;;;;;0.77;0.52;;;;;;;-147.53;100.00;57128.34;10560729;28;20040;-80
2023/04/12 02:05:26;;;;;;;4.72;1.30;;;;;;;-147.53;100.00;57128.34;10541308;28;20048;-79
2023/04/12 02:10:29;;;;;;;0.82;0.47;;;;;;;-147.53;100.00;57128.34;10550639;28;20051;-79
2023/04/12 02:15:31;;;;;;;0.52;0.30;;;;;;;-147.53;100.00;57128.34;10551273;28;20051;-79
2023/04/12 02:20:34;;;;;;;1.75;0.57;;;;;;;-147.53;100.00;57128.34;10550768;28;20046;-79
2023/04/12 02:25:37;;;;;;;0.40;0.40;;;;;;;-147.53;100.00;57128.34;10557979;28;20050;-79
2023/04/12 02:30:40;;;;;;;0.75;0.70;;;;;;;-147.53;100.00;57128.34;10530838;28;20134;-79
2023/04/12 02:35:43;;;;;;;1.15;0.55;;;;;;;-147.53;100.00;57128.34;10543350;28;20081;-79
2023/04/12 02:40:49;;;;;;;1.00;0.80;;;;;;;-147.53;100.00;57128.34;10531628;28;20058;-79
2023/04/12 02:45:51;;;;;;;1.40;0.63;;;;;;;-147.53;100.00;57128.34;10532929;28;20059;-80
2023/04/12 02:50:53;;;;;;;3.58;1.30;;;;;;;-147.53;100.00;57128.34;10537882;28;20127;-79
2023/04/12 02:56:00;;;;;;;3.95;1.05;;;;;;;-147.53;100.00;57128.34;10564914;28;20078;-79
2023/04/12 03:01:06;;;;;;;0.45;0.32;;;;;;;-147.53;100.00;57128.34;10546338;28;20436;-79
2023/04/12 03:06:24;;;;;;;0.65;0.43;;;;;;;-147.53;100.00;57128.34;10547365;28;20079;-80
2023/04/12 03:11:26;;;;;;;1.02;0.60;;;;;;;-147.53;100.00;57128.34;10565344;28;20052;-79
2023/04/12 03:16:28;;;;;;;0.10;0.10;;;;;;;-147.53;100.00;57128.34;10538385;28;20496;-79
2023/04/12 03:21:40;;;;;;;0.85;0.60;;;;;;;-147.53;100.00;57128.34;10537482;28;20071;-79
2023/04/12 03:26:42;;;;;;;0.30;0.30;;;;;;;-147.53;100.00;57128.34;10546771;28;20051;-79
2023/04/12 03:31:49;;;;;;;1.27;0.60;;;;;;;-147.53;100.00;57128.34;10535086;28;20036;-79
2023/04/12 03:36:51;;;;;;;1.25;0.70;;;;;;;-147.53;100.00;57128.34;10547951;28;20051;-79
2023/04/12 03:42:00;;;;;;;1.00;0.80;;;;;;;-147.53;100.00;57128.34;10537867;28;20169;-80
2023/04/12 03:47:02;;;;;;;0.47;0.47;;;;;;;-147.53;100.00;57128.34;10555083;28;20439;-80
2023/04/12 03:52:08;;;;;;;1.05;0.55;;;;;;;-147.53;100.00;57128.34;10530925;28;20135;-79
2023/04/12 03:57:11;;;;;;;2.13;0.63;;;;;;;-147.53;100.00;57128.34;10536681;28;20048;-79
2023/04/12 04:02:17;;;;;;;1.52;0.47;;;;;;;-147.53;100.00;57128.34;10533186;28;20039;-79
2023/04/12 04:07:22;;;;;;;0.98;0.50;;;;;;;-147.53;100.00;57128.34;10542296;28;20047;-79
2023/04/12 04:12:26;;;;;;;0.40;0.40;;;;;;;-147.53;100.00;57128.34;10540781;28;20044;-79
2023/04/12 04:17:29;;;;;;;0.25;0.25;;;;;;;-147.53;100.00;57128.34;10524951;28;20198;-80
2023/04/12 04:22:32;;;;;;;2.03;0.85;;;;;;;-147.53;100.00;57128.34;10549238;28;20046;-80
2023/04/12 04:27:37;;;;;;;0.68;0.50;;;;;;;-147.53;100.00;57128.34;10525324;28;20044;-80
2023/04/12 04:32:42;;;;;;;2.53;0.50;;;;;;;-147.53;100.00;57128.34;10548575;28;20043;-80
2023/04/12 04:37:44;;;;;;;0.45;0.35;;;;;;;-147.53;100.00;57128.34;10542834;28;20503;-78
2023/04/12 04:42:53;;;;;;;1.90;0.60;;;;;;;-147.53;100.00;57128.34;10549629;28;20039;-79
2023/04/12 04:47:58;;;;;;;0.55;0.43;;;;;;;-147.53;100.00;57128.34;10537815;28;20059;-79
2023/04/12 04:52:59;;;;;;;1.58;0.82;;;;;;;-147.53;100.00;57128.34;10541057;28;20044;-79
2023/04/12 04:58:02;;;;;;;0.35;0.28;;;;;;;-147.53;100.00;57128.34;10551215;28;20150;-79
2023/04/12 05:03:04;;;;;;;0.20;0.20;;;;;;;-147.53;100.00;57128.34;10540250;28;20453;-79
2023/04/12 05:08:06;;;;;;;2.42;0.50;;;;;;;-147.53;100.00;57128.34;10534842;28;20097;-79
2023/04/12 05:13:09;;;;;;;0.47;0.43;;;;;;;-147.53;100.00;57128.34;10535720;28;20054;-79
2023/04/12 05:18:10;;;;;;;3.10;1.35;;;;;;;-147.53;100.00;57128.34;10512764;28;20134;-80
2023/04/12 05:23:12;;;;;;;2.60;0.50;;;;;;;-147.53;100.00;57128.34;10547160;28;20112;-80
2023/04/12 05:28:16;;;;;;;0.45;0.40;;;;;;;-147.53;100.00;57128.34;10552680;28;20047;-79
2023/04/12 05:33:19;;;;;;;1.58;0.60;;;;;;;-147.53;100.00;57128.34;10494417;28;20589;-80
2023/04/12 05:38:22;;;;;;;0.63;0.40;;;;;;;-147.53;100.00;57128.34;10510647;28;20041;-79
2023/04/12 05:43:28;;;;;;;3.35;0.82;;;;;;;-147.53;100.00;57128.34;10517077;28;20040;-80
2023/04/12 05:48:31;;;;;;;0.50;0.40;;;;;;;-147.53;100.00;57128.34;10536806;28;20036;-81
2023/04/12 05:53:36;;;;;;;0.93;0.30;;;;;;;-147.53;100.00;57128.34;10550563;28;20072;-80
2023/04/12 05:58:39;;;;;;;2.47;0.60;;;;;;;-147.53;100.00;57128.34;10558194;28;20047;-80
2023/04/12 06:03:42;;;;;;;0.30;0.30;;;;;;;-147.53;100.00;57128.34;10550629;28;20081;-79
2023/04/12 06:08:46;;;;;;;2.22;0.73;;;;;;;-147.53;100.00;57128.34;10548352;28;20043;-80
2023/04/12 06:13:48;;;;;;;5.32;0.60;;;;;;;-147.53;100.00;57128.34;10563355;28;20043;-79
2023/04/12 06:18:50;;;;;;;0.55;0.40;;;;;;;-147.53;100.00;57128.34;10552385;28;20088;-80
2023/04/12 06:23:53;;;;;;;0.22;0.22;;;;;;;-147.53;100.00;57128.34;10540697;28;20543;-80
2023/04/12 06:28:54;;;;;;;0.63;0.50;;;;;;;-147.53;100.00;57128.34;10541587;28;20048;-79
2023/04/12 06:33:56;;;;;;;0.82;0.73;;;;;;;-147.53;100.00;57128.34;10545316;28;20096;-80
2023/04/12 06:38:58;;;;;;;0.88;0.47;;;;;;;-147.53;100.00;57128.34;10537916;28;20036;-79
2023/04/12 06:44:00;;;;;;;0.38;0.38;;;;;;;-147.53;100.00;57128.34;10558272;28;20043;-80
2023/04/12 06:49:01;;;;;;;0.65;0.45;;;;;;;-147.53;100.00;57128.34;10554031;28;20126;-80
2023/04/12 06:54:04;;;;;;;2.00;0.98;;;;;;;-147.53;100.00;57128.34;10541719;28;20055;-80
2023/04/12 06:59:06;;;;;;;3.30;1.15;;;;;;;-147.53;100.00;57128.34;10529700;28;20311;-80
2023/04/12 07:04:07;;;;;;;0.63;0.55;;;;;;;-147.53;100.00;57128.34;10569329;28;20419;-79
2023/04/12 07:09:09;;;;;;;1.10;0.60;;;;;;;-147.53;100.00;57128.34;10555808;28;20429;-80
2023/04/12 07:14:12;;;;;;;0.60;0.43;;;;;;;-147.53;100.00;57128.34;10541784;28;20040;-79
2023/04/12 07:19:15;;;;;;;0.68;0.50;;;;;;;-147.53;100.00;57128.34;10555408;28;20587;-79
2023/04/12 07:24:19;;;;;;;0.40;0.40;;;;;;;-147.53;100.00;57128.34;10537879;28;20118;-79
2023/04/12 07:29:22;;;;;;;0.43;0.43;;;;;;;-147.53;100.00;57128.34;10557779;28;20048;-79
2023/04/12 07:34:24;;;;;;;0.68;0.40;;;;;;;-147.53;100.00;57128.34;10545421;28;20040;-79
2023/04/12 07:39:28;;;;;;;3.75;0.98;;;;;;;-147.53;100.00;57128.34;10569971;28;20039;-79
2023/04/12 07:44:32;;;;;;;0.40;0.40;;;;;;;-147.53;100.00;57128.34;10569877;28;20036;-79
2023/04/12 07:49:39;;;;;;;1.20;0.60;;;;;;;-147.53;100.00;57128.34;10500247;28;20056;-80
2023/04/12 07:54:41;;;;;;;4.85;1.23;;;;;;;-147.53;100.00;57128.34;10535740;28;20093;-79
2023/04/12 07:59:43;;;;;;;1.08;0.70;;;;;;;-147.53;100.00;57128.34;10553555;28;20035;-79
2023/04/12 08:04:45;;;;;;;0.68;0.45;;;;;;;-147.53;100.00;57128.34;10549162;28;20451;-80
2023/04/12 08:09:47;;;;;;;1.60;0.57;;;;;;;-147.53;100.00;57128.34;10564113;28;20040;-81
2023/04/12 08:14:49;;;;;;;0.70;0.50;;;;;;;-147.53;100.00;57128.34;10550934;28;20411;-79
2023/04/12 08:19:51;;;;;;;1.77;0.50;;;;;;;-147.53;100.00;57128.34;10525695;28;20054;-79
2023/04/12 08:24:54;;;;;;;0.85;0.55;;;;;;;-147.53;100.00;57128.34;10535016;28;20127;-81
2023/04/12 08:29:56;;;;;;;2.60;0.90;;;;;;;-147.53;100.00;57128.34;10540030;28;20726;-79
2023/04/12 08:34:59;;;;;;;0.52;0.52;;;;;;;-147.53;100.00;57128.34;10552058;28;20111;-80
2023/04/12 08:40:08;;;;;;;1.77;0.57;;;;;;;-147.53;100.00;57128.34;10547784;28;20435;-80
2023/04/12 08:45:10;;;;;;;1.38;0.73;;;;;;;-147.53;100.00;57128.34;10536881;28;20081;-81
2023/04/12 08:50:12;;;;;;;1.65;0.68;;;;;;;-147.53;100.00;57128.34;10563373;28;20419;-81
2023/04/12 08:55:14;;;;;;;2.45;1.05;;;;;;;-147.53;100.00;57128.34;10555632;28;20162;-81
2023/04/12 09:00:17;;;;;;;3.13;1.17;;;;;;;-147.53;100.00;57128.34;10561510;28;20059;-83
2023/04/12 09:05:27;;;;;;;4.07;0.90;;;;;;;-147.53;100.00;57128.34;10533879;28;20117;-82
2023/04/12 09:10:35;;;;;;;6.18;1.10;;;;;;;-147.53;100.00;57128.34;10541618;28;20044;-81
2023/04/12 09:15:47;;;;;;;0.40;0.32;;;;;;;-147.53;100.00;57128.34;10548605;28;20067;-81
2023/04/12 09:20:50;;;;;;;0.80;0.47;;;;;;;-147.53;100.00;57128.34;10552057;28;20043;-82
2023/04/12 09:25:52;;;;;;;7.40;1.60;;;;;;;-147.53;100.00;57128.34;10540395;28;20044;-82
2023/04/12 09:30:56;;;;;;;1.00;0.77;;;;;;;-147.53;100.00;57128.34;10548761;28;20051;-82
2023/04/12 09:36:02;;;;;;;2.97;1.33;;;;;;;-147.53;100.00;57128.34;10540814;28;20089;-82
2023/04/12 09:41:24;;;;;;;1.08;0.60;;;;;;;-147.53;100.00;57128.34;10527415;28;20127;-82
2023/04/12 09:46:27;;;;;;;2.67;1.17;;;;;;;-147.53;100.00;57128.34;10546975;28;20040;-81
2023/04/12 09:51:32;;;;;;;2.03;0.90;;;;;;;-147.53;100.00;57128.34;10525913;28;20079;-81
2023/04/12 09:56:36;;;;;;;0.30;0.30;;;;;;;-147.53;100.00;57128.34;10571534;28;20090;-81
2023/04/12 10:01:38;;;;;;;2.58;1.00;;;;;;;-147.53;100.00;57128.34;10529954;28;20123;-82
2023/04/12 10:06:42;;;;;;;1.20;0.60;;;;;;;-147.53;100.00;57128.34;10546052;28;20149;-82
2023/04/12 10:11:45;;;;;;;1.75;0.82;;;;;;;-147.53;100.00;57128.34;10554330;28;20044;-82
2023/04/12 10:16:48;;;;;;;1.65;1.00;;;;;;;-147.53;100.00;57128.34;10568077;28;20055;-81
2023/04/12 10:21:49;;;;;;;1.58;1.10;;;;;;;-147.53;100.00;57128.34;10550122;28;20078;-81
2023/04/12 10:26:54;;;;;;;10.10;1.65;;;;;;;-147.53;100.00;57128.34;10539438;28;20310;-81
2023/04/12 10:32:16;;;;;;;1.90;1.15;;;;;;;-147.53;100.00;57128.34;10535521;28;20116;-82
2023/04/12 10:37:19;;;;;;;2.35;0.98;;;;;;;-147.53;100.00;57128.34;10561753;28;20415;-82
2023/04/12 10:42:28;;;;;;;1.73;0.70;;;;;;;-147.53;100.00;57128.34;10559005;28;20477;-80
2023/04/12 10:47:48;;;;;;;1.00;0.80;;;;;;;-147.53;100.00;57128.34;10535368;28;20036;-80
2023/04/12 10:53:08;;;;;;;1.95;1.00;;;;;;;-147.53;100.00;57128.34;10529626;28;20054;-81
2023/04/12 10:59:02;;;;;;;2.72;1.45;;;;;;;-147.53;100.00;57128.34;10548254;28;20040;-79
2023/04/12 11:04:20;;;;;;;1.42;0.80;;;;;;;-147.53;100.00;57128.34;10491120;28;20047;-80
2023/04/12 11:09:43;;;;;;;2.38;1.38;;;;;;;-147.53;100.00;57128.34;10541146;28;20032;-81
2023/04/12 11:14:51;;;;;;;1.67;0.90;;;;;;;-147.53;100.00;57128.34;10538649;28;20242;-80
2023/04/12 11:20:00;;;;;;;1.67;0.95;;;;;;;-147.53;100.00;57128.34;10544300;28;20065;-80
2023/04/12 11:25:02;;;;;;;3.30;1.40;;;;;;;-147.53;100.00;57128.34;10563812;28;20054;-80
2023/04/12 11:30:04;;;;;;;2.47;1.70;;;;;;;-147.53;100.00;57128.34;10553359;28;20481;-80
2023/04/12 11:35:09;;;;;;;1.80;1.02;;;;;;;-147.53;100.00;57128.34;10502978;28;20055;-80
2023/04/12 11:40:11;;;;;;;5.13;1.75;;;;;;;-147.53;100.00;57128.34;10545231;28;20131;-80
2023/04/12 11:45:18;;;;;;;1.63;0.90;;;;;;;-147.53;100.00;57128.34;10559639;28;20085;-80
2023/04/12 11:50:28;;;;;;;1.25;0.95;;;;;;;-147.53;100.00;57128.34;10525097;28;20046;-82
2023/04/12 11:55:30;;;;;;;2.78;1.25;;;;;;;-147.53;100.00;57128.34;10543972;28;20124;-80
2023/04/12 12:00:32;;;;;;;4.00;1.48;;;;;;;-147.53;100.00;57128.34;10541066;28;20031;-81
2023/04/12 12:05:37;;;;;;;1.48;0.95;;;;;;;-147.53;100.00;57128.34;10569844;28;20042;-80
2023/04/12 12:10:39;;;;;;;2.85;1.05;;;;;;;-147.53;100.00;57128.34;10552927;28;20039;-80
2023/04/12 12:16:05;;;;;;;1.27;0.70;;;;;;;-147.53;100.00;57128.34;10513714;28;20334;-80
2023/04/12 12:21:08;;;;;;;1.05;0.85;;;;;;;-147.53;100.00;57128.34;10544205;28;20051;-81
2023/04/12 12:26:26;;;;;;;2.13;1.17;;;;;;;-147.53;100.00;57128.34;10526930;28;20158;-80
2023/04/12 12:31:27;;;;;;;1.85;0.90;;;;;;;-147.53;100.00;57128.34;10552726;28;20043;-80
2023/04/12 12:36:31;;;;;;;0.93;0.80;;;;;;;-147.53;100.00;57128.34;10525323;28;20578;-80
2023/04/12 12:41:33;;;;;;;1.65;0.90;;;;;;;-147.53;100.00;57128.34;10541765;28;20045;-80
2023/04/12 12:46:35;;;;;;;2.55;1.00;;;;;;;-147.53;100.00;57128.34;10553609;28;20039;-81
2023/04/12 12:51:55;;;;;;;1.33;0.85;;;;;;;-147.53;100.00;57128.34;10541266;28;20147;-80
2023/04/12 12:56:57;;;;;;;1.48;0.93;;;;;;;-147.53;100.00;57128.34;10553665;28;20050;-79
2023/04/12 13:01:59;;;;;;;1.48;0.77;;;;;;;-147.53;100.00;57128.34;10550833;28;20043;-79
2023/04/12 13:07:00;;;;;;;1.23;0.90;;;;;;;-147.53;100.00;57128.34;10549098;28;20586;-80
2023/04/12 13:12:03;;;;;;;1.10;0.73;;;;;;;-147.53;100.00;57128.34;10555034;28;20040;-80
2023/04/12 13:17:04;;;;;;;2.42;1.05;;;;;;;-147.53;100.00;57128.34;10528773;28;20044;-80
2023/04/12 13:22:07;;;;;;;0.70;0.70;;;;;;;-147.53;100.00;57128.34;10549759;28;20054;-80
2023/04/12 13:27:09;;;;;;;0.82;0.60;;;;;;;-147.53;100.00;57128.34;10568921;28;20044;-80
2023/04/12 13:32:14;;;;;;;1.33;0.70;;;;;;;-147.53;100.00;57128.34;10571799;28;20078;-80
2023/04/12 13:37:16;;;;;;;1.58;0.80;;;;;;;-147.53;100.00;57128.34;10561270;28;20606;-79
2023/04/12 13:42:17;;;;;;;1.48;0.85;;;;;;;-147.53;100.00;57128.34;10552548;28;20043;-80
2023/04/12 13:47:19;;;;;;;2.33;0.90;;;;;;;-147.53;100.00;57128.34;10575882;28;20043;-80
2023/04/12 13:52:21;;;;;;;1.90;1.13;;;;;;;-147.53;100.00;57128.34;10556048;28;20027;-79
2023/04/12 13:57:22;;;;;;;1.13;0.73;;;;;;;-147.53;100.00;57128.34;10542232;28;20038;-80
2023/04/12 14:02:24;;;;;;;1.25;0.80;;;;;;;-147.53;100.00;57128.34;10554943;28;20480;-80
2023/04/12 14:07:28;;;;;;;2.00;1.02;;;;;;;-147.53;100.00;57128.34;10539908;28;20047;-79
2023/04/12 14:12:29;;;;;;;0.82;0.80;;;;;;;-147.53;100.00;57128.34;10548928;28;20652;-80
2023/04/12 14:17:31;;;;;;;2.08;1.00;;;;;;;-147.53;100.00;57128.34;10534706;28;20059;-80
2023/04/12 14:22:33;;;;;;;1.50;1.05;;;;;;;-147.53;100.00;57128.34;10534713;28;20032;-79
2023/04/12 14:27:35;;;;;;;1.10;0.80;;;;;;;-147.53;100.00;57128.34;10540824;28;20071;-81
2023/04/12 14:32:37;;;;;;;3.28;1.38;;;;;;;-147.53;100.00;57128.34;10552660;28;20032;-81
2023/04/12 14:37:39;;;;;;;1.48;0.98;;;;;;;-147.53;100.00;57128.34;10553857;28;20459;-80
2023/04/12 14:42:40;;;;;;;1.00;0.68;;;;;;;-147.53;100.00;57128.34;10545250;28;20106;-80
2023/04/12 14:47:42;;;;;;;0.88;0.80;;;;;;;-147.53;100.00;57128.34;10568248;28;20047;-80
2023/04/12 14:52:44;;;;;;;1.48;1.02;;;;;;;-147.53;100.00;57128.34;10579321;28;20046;-80
2023/04/12 14:57:46;;;;;;;1.95;1.17;;;;;;;-147.53;100.00;57128.34;10563461;28;20040;-81
2023/04/12 15:02:48;;;;;;;1.52;1.05;;;;;;;-147.53;100.00;57128.34;10557382;28;20042;-80
2023/04/12 15:07:50;;;;;;;2.03;1.10;;;;;;;-147.53;100.00;57128.34;10557265;28;20072;-80
2023/04/12 15:12:52;;;;;;;1.52;1.00;;;;;;;-147.53;100.00;57128.34;10561511;28;20096;-80
2023/04/12 15:17:53;;;;;;;1.05;0.93;;;;;;;-147.53;100.00;57128.34;10559349;28;20044;-82
2023/04/12 15:22:55;;;;;;;1.23;0.90;;;;;;;-147.53;100.00;57128.34;10527660;28;20048;-77
2023/04/12 15:27:56;;;;;;;1.63;0.80;;;;;;;-147.53;100.00;57128.34;10547927;28;20040;-76
2023/04/12 15:32:58;;;;;;;2.15;1.20;;;;;;;-147.53;100.00;57128.34;10521492;28;20044;-77
2023/04/12 15:38:00;;;;;;;1.38;0.70;;;;;;;-147.53;100.00;57128.34;10535747;28;20512;-78
2023/04/12 15:43:01;;;;;;;1.50;0.98;;;;;;;-147.53;100.00;57128.34;10533813;28;20066;-77
2023/04/12 15:48:03;;;;;;;1.83;0.85;;;;;;;-147.53;100.00;57128.34;10522527;28;20134;-76
2023/04/12 15:53:05;;;;;;;1.92;1.30;;;;;;;-147.53;100.00;57128.34;10541598;28;20043;-77
2023/04/12 15:58:07;;;;;;;0.70;0.63;;;;;;;-147.53;100.00;57128.34;10549755;28;20389;-78
2023/04/12 16:03:11;;;;;;;2.97;1.15;;;;;;;-147.53;100.00;57128.34;10543131;28;20042;-77
2023/04/12 16:08:13;;;;;;;1.48;1.00;;;;;;;-147.53;100.00;57128.34;10511137;27;20046;-77
2023/04/12 16:13:14;;;;;;;1.90;1.00;;;;;;;-147.53;100.00;57128.34;10541432;28;20048;-77
2023/04/12 16:18:16;;;;;;;1.15;0.98;;;;;;;-147.53;100.00;57128.34;10546216;28;20043;-77
2023/04/12 16:23:18;;;;;;;1.92;1.20;;;;;;;-147.53;100.00;57128.34;10528513;28;20044;-77
2023/04/12 16:28:21;;;;;;;2.45;1.17;;;;;;;-147.53;100.00;57128.34;10552179;28;20051;-77
2023/04/12 16:33:23;;;;;;;3.30;0.73;;;;;;;-147.53;100.00;57128.34;10529362;28;20170;-82
2023/04/12 16:38:25;;;;;;;1.35;0.57;;;;;;;-147.53;100.00;57128.34;10504282;28;20343;-82
2023/04/12 16:43:27;;;;;;;1.40;0.50;;;;;;;-147.53;100.00;57128.34;10537572;28;20047;-83
2023/04/12 16:48:29;;;;;;;2.42;0.47;;;;;;;-147.53;100.00;57128.34;10503786;28;20045;-80
2023/04/12 16:53:30;;;;;;;1.95;0.40;;;;;;;-147.53;100.00;57128.34;10525832;28;20036;-81
2023/04/12 16:58:32;;;;;;;4.00;0.77;;;;;;;-147.53;100.00;57128.34;10528448;28;20047;-81
2023/04/12 17:03:33;;;;;;;0.90;0.68;;;;;;;-147.53;100.00;57128.34;10561231;28;20028;-81
2023/04/12 17:08:36;;;;;;;0.95;0.40;;;;;;;-147.53;100.00;57128.34;10538632;28;20052;-81
2023/04/12 17:13:37;;;;;;;4.00;0.90;;;;;;;-147.53;100.00;57128.34;10547859;28;20036;-82
2023/04/12 17:18:42;;;;;;;1.65;0.60;;;;;;;-147.53;100.00;57128.34;10544994;28;20121;-81
2023/04/12 17:23:43;;;;;;;2.63;0.60;;;;;;;-147.53;100.00;57128.34;10551029;28;20097;-82
2023/04/12 17:28:45;;;;;;;0.43;0.38;;;;;;;-147.53;100.00;57128.34;10540623;28;20525;-82
2023/04/12 17:33:47;;;;;;;1.25;0.85;;;;;;;-147.53;100.00;57128.34;10556403;28;20043;-81
2023/04/12 17:38:48;;;;;;;0.82;0.52;;;;;;;-147.53;100.00;57128.34;10568616;28;20040;-81
2023/04/12 17:43:50;;;;;;;0.82;0.70;;;;;;;-147.53;100.00;57128.34;10569092;28;20054;-81
2023/04/12 17:48:51;;;;;;;2.63;1.25;;;;;;;-147.53;100.00;57128.34;10535628;28;20048;-80
2023/04/12 17:53:55;;;;;;;1.20;0.68;;;;;;;-147.53;100.00;57128.34;10530598;28;20131;-81
2023/04/12 17:58:57;;;;;;;2.65;0.98;;;;;;;-147.53;100.00;57128.34;10565463;28;20495;-81
2023/04/12 18:04:01;;;;;;;1.20;0.57;;;;;;;-147.53;100.00;57128.34;10514504;28;20034;-82
2023/04/12 18:09:03;;;;;;;3.67;1.77;;;;;;;-147.53;100.00;57128.34;10512997;28;20056;-81
2023/04/12 18:14:05;;;;;;;2.03;0.70;;;;;;;-147.53;100.00;57128.34;10536788;28;20051;-82
2023/04/12 18:19:14;;;;;;;1.17;0.82;;;;;;;-147.53;100.00;57128.34;10532841;28;20048;-82
2023/04/12 18:24:16;;;;;;;2.22;0.57;;;;;;;-147.53;100.00;57128.34;10506338;28;20093;-82
2023/04/12 18:29:18;;;;;;;1.75;1.13;;;;;;;-147.53;100.00;57128.34;10508168;28;20538;-81
2023/04/12 18:34:21;;;;;;;1.25;0.63;;;;;;;-147.53;100.00;57128.34;10512248;28;20047;-81
2023/04/12 18:39:23;;;;;;;1.95;0.85;;;;;;;-147.53;100.00;57128.34;10560690;28;20040;-82
2023/04/12 18:44:25;;;;;;;1.38;0.80;;;;;;;-147.53;100.00;57128.34;10550093;28;20634;-81
2023/04/12 18:49:26;;;;;;;1.20;0.68;;;;;;;-147.53;100.00;57128.34;10558217;28;20084;-82
2023/04/12 18:54:28;;;;;;;3.28;0.88;;;;;;;-147.53;100.00;57128.34;10535122;28;20669;-82
2023/04/12 18:59:29;;;;;;;1.60;1.05;;;;;;;-147.53;100.00;57128.34;10541315;28;20102;-81
2023/04/12 19:04:31;;;;;;;3.90;1.33;;;;;;;-147.53;100.00;57128.34;10497190;28;20108;-81
2023/04/12 19:09:33;;;;;;;2.55;1.20;;;;;;;-147.53;100.00;57128.34;10515701;28;20143;-81
2023/04/12 19:14:35;;;;;;;3.92;1.27;;;;;;;-147.53;100.00;57128.34;10528492;28;20044;-81
2023/04/12 19:19:36;;;;;;;2.45;1.10;;;;;;;-147.53;100.00;57128.34;10531805;28;20388;-82
2023/04/12 19:24:38;;;;;;;4.50;1.17;;;;;;;-147.53;100.00;57128.34;10529719;28;20053;-82
2023/04/12 19:29:39;;;;;;;2.15;1.27;;;;;;;-147.53;100.00;57128.34;10545193;28;20419;-82
2023/04/12 19:34:41;;;;;;;1.58;0.95;;;;;;;-147.53;100.00;57128.34;10568297;28;20097;-82
2023/04/12 19:39:42;;;;;;;1.95;0.98;;;;;;;-147.53;100.00;57128.34;10532228;28;20056;-81
2023/04/12 19:44:44;;;;;;;2.08;0.93;;;;;;;-147.53;100.00;57128.34;10529831;28;20040;-82
2023/04/12 19:49:48;;;;;;;2.58;1.30;;;;;;;-147.53;100.00;57128.34;10544333;28;20036;-81
2023/04/12 19:54:52;;;;;;;3.22;1.85;;;;;;;-147.53;100.00;57128.34;10543949;28;20040;-81
2023/04/12 19:59:54;;;;;;;1.67;0.98;;;;;;;-147.53;100.00;57128.34;10487858;28;20053;-82
2023/04/12 20:04:56;;;;;;;1.13;0.70;;;;;;;-147.53;100.00;57128.34;10508421;28;20499;-82
2023/04/12 20:09:59;;;;;;;0.50;0.50;;;;;;;-147.53;100.00;57128.34;10534842;28;20039;-82
2023/04/12 20:15:00;;;;;;;2.40;1.27;;;;;;;-147.53;100.00;57128.34;10552030;28;20411;-82
2023/04/12 20:20:06;;;;;;;2.30;1.27;;;;;;;-147.53;100.00;57128.34;10559681;28;20040;-81
2023/04/12 20:25:09;;;;;;;2.45;1.42;;;;;;;-147.53;100.00;57128.34;10545535;28;20051;-82
2023/04/12 20:30:16;;;;;;;1.58;1.05;;;;;;;-147.53;100.00;57128.34;10550978;28;20051;-82
2023/04/12 20:35:18;;;;;;;3.65;0.98;;;;;;;-147.53;100.00;57128.34;10528107;28;20051;-82
2023/04/12 20:40:22;;;;;;;1.55;0.90;;;;;;;-147.53;100.00;57128.34;10555675;28;20059;-82
2023/04/12 20:45:23;;;;;;;0.85;0.73;;;;;;;-147.53;100.00;57128.34;10528598;28;20048;-82
2023/04/12 20:50:25;;;;;;;3.28;1.17;;;;;;;-147.53;100.00;57128.34;10544751;28;20048;-82
2023/04/12 20:55:31;;;;;;;0.90;0.60;;;;;;;-147.53;100.00;57128.34;10539663;28;20051;-82
2023/04/12 21:00:33;;;;;;;0.80;0.80;;;;;;;-147.53;100.00;57128.34;10544804;28;20732;-82
2023/04/12 21:05:34;;;;;;;1.92;1.25;;;;;;;-147.53;100.00;57128.34;10554576;28;20302;-82
2023/04/12 21:10:36;;;;;;;3.67;0.60;;;;;;;-147.53;100.00;57128.34;10537345;28;20123;-82
2023/04/12 21:15:39;;;;;;;1.75;1.15;;;;;;;-147.53;100.00;57128.34;10545116;28;20047;-81
2023/04/12 21:20:45;;;;;;;3.10;0.85;;;;;;;-147.53;100.00;57128.34;10542497;28;20054;-82
2023/04/12 21:25:47;;;;;;;4.65;1.23;;;;;;;-147.53;100.00;57128.34;10556736;28;20036;-82
2023/04/12 21:30:53;;;;;;;1.67;0.95;;;;;;;-147.53;100.00;57128.34;10529840;28;20051;-82
2023/04/12 21:35:55;;;;;;;2.20;0.80;;;;;;;-147.53;100.00;57128.34;10550350;28;20048;-82
2023/04/12 21:41:04;;;;;;;1.83;0.93;;;;;;;-147.53;100.00;57128.34;10515782;28;20075;-82
2023/04/12 21:46:08;;;;;;;;;;;;;;;-147.53;100.00;57128.34;10571060;28;20079;-82
2023/04/12 21:51:10;;;;;;;1.30;0.90;;;;;;;-147.53;100.00;57128.34;10555054;28;19989;-82
2023/04/12 21:56:11;;;;;;;0.93;0.80;;;;;;;-147.53;100.00;57128.34;10542568;28;20211;-83
2023/04/12 22:01:14;;;;;;;7.22;1.27;;;;;;;-147.53;100.00;57128.34;10552709;28;20123;-82
2023/04/12 22:06:18;;;;;;;3.47;1.75;;;;;;;-147.53;100.00;57128.34;10533494;28;20040;-83
2023/04/12 22:11:20;;;;;;;1.15;0.70;;;;;;;-147.53;100.00;57128.34;10552928;28;20534;-82
2023/04/12 22:16:22;;;;;;;0.60;0.57;;;;;;;-147.53;100.00;57128.34;10531770;28;20040;-82
2023/04/12 22:21:25;;;;;;;2.38;1.33;;;;;;;-147.53;100.00;57128.34;10565998;28;20075;-82
2023/04/12 22:26:26;;;;;;;1.38;0.82;;;;;;;-147.53;100.00;57128.34;10539318;28;20046;-82
2023/04/12 22:31:28;;;;;;;0.75;0.60;;;;;;;-147.53;100.00;57128.34;10550054;28;20074;-83
2023/04/12 22:36:35;;;;;;;0.55;0.55;;;;;;;-147.53;100.00;57128.34;10551584;28;20126;-83
2023/04/12 22:41:37;;;;;;;1.33;0.93;;;;;;;-147.53;100.00;57128.34;10548148;28;20234;-82
2023/04/12 22:46:42;;;;;;;2.25;1.17;;;;;;;-147.53;100.00;57128.34;10556055;28;20047;-82